createdAt,value
2018-10-19T00:06:26.913Z,67.34
2018-10-19T00:14:47.953Z,67.26
2018-10-19T00:23:09.089Z,66.19
2018-10-19T00:31:30.116Z,65.48
2018-10-19T00:39:51.120Z,65.65
2018-10-19T00:48:12.154Z,66.04
2018-10-19T00:56:33.157Z,64.94
2018-10-19T01:04:54.242Z,64.48
2018-10-19T01:13:15.262Z,65.18
2018-10-19T01:21:36.346Z,64.34
2018-10-19T01:29:57.734Z,64.10
2018-10-19T01:38:18.748Z,64.88
2018-10-19T01:46:39.745Z,64.89
2018-10-19T01:55:01.803Z,64.46
2018-10-19T02:03:22.804Z,64.11
2018-10-19T02:11:43.843Z,63.52
2018-10-19T02:20:04.859Z,63.76
2018-10-19T02:28:25.875Z,63.43
2018-10-19T02:36:46.939Z,62.50
2018-10-19T02:45:08.033Z,63.56
2018-10-19T02:53:29.057Z,63.69
2018-10-19T03:01:50.083Z,63.78
2018-10-19T03:10:12.148Z,63.76
2018-10-19T03:18:33.187Z,65.43
2018-10-19T03:26:54.229Z,66.00
2018-10-19T03:35:15.339Z,65.79
2018-10-19T03:43:36.268Z,64.52
2018-10-19T03:52:02.260Z,65.27
2018-10-19T04:00:23.283Z,64.01
2018-10-19T04:25:38.225Z,64.09
2018-10-19T04:42:25.644Z,62.96
2018-10-19T04:50:46.596Z,63.48
2018-10-19T04:59:08.013Z,63.74
2018-10-19T05:07:28.945Z,62.81
2018-10-19T05:15:50.056Z,62.73
2018-10-19T05:24:11.066Z,63.53
2018-10-19T05:32:33.132Z,63.08
2018-10-19T05:40:55.223Z,63.53
2018-10-19T05:49:20.052Z,63.17
2018-10-19T05:57:41.095Z,63.70
2018-10-19T06:06:02.094Z,63.31
2018-10-19T06:14:23.203Z,63.33
2018-10-19T06:22:44.254Z,63.83
2018-10-19T06:31:05.277Z,62.86
2018-10-19T06:39:26.416Z,62.74
2018-10-19T06:47:47.445Z,63.39
2018-10-19T06:56:08.496Z,62.32
2018-10-19T07:04:29.515Z,61.26
2018-10-19T07:12:51.623Z,63.48
2018-10-19T07:21:12.687Z,61.43
2018-10-19T07:29:34.079Z,59.91
2018-10-19T07:37:55.154Z,60.15
2018-10-19T07:46:16.152Z,59.29
2018-10-19T07:54:37.342Z,59.91
2018-10-19T08:02:58.320Z,59.57
2018-10-19T08:11:19.358Z,59.60
2018-10-19T08:19:40.348Z,59.85
2018-10-19T08:28:01.414Z,59.68
2018-10-19T08:36:22.450Z,59.43
2018-10-19T08:44:43.475Z,58.31
2018-10-19T08:53:06.719Z,59.66
2018-10-19T09:01:28.456Z,58.78
2018-10-19T09:09:49.459Z,59.50
2018-10-19T09:18:10.494Z,58.87
2018-10-19T09:26:31.492Z,59.40
2018-10-19T09:34:52.581Z,60.51
2018-10-19T09:43:13.658Z,59.89
2018-10-19T09:51:34.727Z,59.83
2018-10-19T09:59:57.858Z,58.60
2018-10-19T10:08:20.950Z,58.09
2018-10-19T10:16:41.991Z,58.40
2018-10-19T10:25:03.079Z,57.76
2018-10-19T10:33:24.106Z,57.01
2018-10-19T10:41:45.112Z,57.67
2018-10-19T10:50:06.150Z,55.97
2018-10-19T10:58:29.266Z,56.75
2018-10-19T11:06:51.315Z,55.17
2018-10-19T11:15:12.638Z,54.74
2018-10-19T11:23:37.498Z,53.90
2018-10-19T11:31:58.510Z,51.85
2018-10-19T11:40:19.559Z,52.29
2018-10-19T11:48:40.599Z,51.31
2018-10-19T11:57:01.676Z,47.73
2018-10-19T12:05:22.746Z,47.95
2018-10-19T12:13:43.775Z,46.34
2018-10-19T12:22:05.818Z,43.35
2018-10-19T12:30:26.843Z,39.92
2018-10-19T12:38:53.250Z,39.32
2018-10-19T12:47:14.314Z,35.53
2018-10-19T12:55:35.314Z,39.54
2018-10-19T13:03:56.621Z,38.85
2018-10-19T13:12:19.706Z,34.82
2018-10-19T13:20:41.751Z,33.61
2018-10-19T13:29:02.782Z,33.22
2018-10-19T13:37:23.781Z,32.08
2018-10-19T13:45:46.859Z,32.19
2018-10-19T13:54:07.911Z,35.48
2018-10-19T14:02:28.912Z,38.25
2018-10-19T14:10:53.539Z,41.49
2018-10-19T14:27:42.907Z,45.24
2018-10-19T14:36:03.904Z,47.72
2018-10-19T14:44:24.955Z,48.04
2018-10-19T14:52:46.321Z,45.80
2018-10-19T15:01:07.773Z,44.30
2018-10-19T15:09:34.831Z,45.24
2018-10-19T15:17:56.009Z,46.35
2018-10-19T15:26:17.015Z,46.40
2018-10-19T15:34:39.128Z,48.63
2018-10-19T15:43:00.151Z,49.17
2018-10-19T15:59:48.395Z,52.11
2018-10-19T16:08:09.749Z,52.18
2018-10-19T16:24:59.462Z,54.25
2018-10-19T16:33:20.479Z,55.14
2018-10-19T16:41:42.545Z,54.93
2018-10-19T16:50:03.594Z,56.22
2018-10-19T16:58:24.644Z,57.75
2018-10-19T17:06:45.995Z,58.06
2018-10-19T17:15:07.093Z,58.41
2018-10-19T17:23:28.102Z,58.20
2018-10-19T17:31:49.238Z,59.38
2018-10-19T17:40:10.360Z,59.57
2018-10-19T17:48:31.367Z,60.64
2018-10-19T17:56:58.195Z,60.88
2018-10-19T18:05:19.206Z,61.01
2018-10-19T18:13:40.250Z,62.66
2018-10-19T18:22:01.519Z,63.12
2018-10-19T18:30:24.212Z,63.50
2018-10-19T18:38:46.323Z,63.19
2018-10-19T18:47:07.349Z,63.56
2018-10-19T18:55:28.358Z,63.75
2018-10-19T19:03:50.463Z,63.83
2018-10-19T19:12:11.603Z,63.97
2018-10-19T19:20:32.642Z,63.89
2018-10-19T19:28:53.751Z,63.74
2018-10-19T19:37:14.862Z,64.05
2018-10-19T19:45:35.891Z,64.20
2018-10-19T19:53:56.912Z,64.56
2018-10-19T20:02:17.960Z,64.42
2018-10-19T20:10:38.988Z,64.47
2018-10-19T20:19:00.026Z,64.92
2018-10-19T20:27:21.042Z,64.74
2018-10-19T20:35:43.176Z,65.46
2018-10-19T20:44:04.506Z,64.84
2018-10-19T20:52:25.852Z,64.56
2018-10-19T21:00:49.077Z,65.96
2018-10-19T21:09:10.053Z,65.88
2018-10-19T21:17:31.079Z,65.84
2018-10-19T21:25:52.073Z,65.65
2018-10-19T21:34:13.072Z,65.83
2018-10-19T21:42:34.083Z,65.59
2018-10-19T21:50:55.126Z,65.55
2018-10-19T21:59:16.205Z,66.10
2018-10-19T22:07:37.408Z,65.88
2018-10-19T22:15:58.395Z,65.98
2018-10-19T22:24:19.505Z,66.26
2018-10-19T22:32:40.586Z,65.81
2018-10-19T22:41:01.637Z,65.85
2018-10-19T22:49:22.648Z,66.67
2018-10-19T22:57:43.656Z,66.37
2018-10-19T23:06:04.688Z,67.06
2018-10-19T23:14:25.761Z,66.34
2018-10-19T23:22:46.911Z,65.90
2018-10-19T23:31:08.063Z,66.91
2018-10-19T23:39:29.363Z,66.45
2018-10-19T23:47:50.368Z,65.90
2018-10-19T23:56:11.394Z,66.64
